createdAt,value
2018-11-21T00:00:55.236Z,15.30
2018-11-21T00:03:35.677Z,15.03
2018-11-21T00:06:16.478Z,14.37
2018-11-21T00:08:57.380Z,13.80
2018-11-21T00:11:37.865Z,13.43
2018-11-21T00:14:18.748Z,12.90
2018-11-21T00:16:59.620Z,12.87
2018-11-21T00:19:39.991Z,12.83
2018-11-21T00:22:20.937Z,12.50
2018-11-21T00:24:49.385Z,13.07
2018-11-21T00:27:30.325Z,13.77
2018-11-21T00:30:12.533Z,13.33
2018-11-21T00:32:53.537Z,13.07
2018-11-21T00:35:34.471Z,13.40
2018-11-21T00:38:15.536Z,13.97
2018-11-21T00:40:56.287Z,13.37
2018-11-21T00:43:24.515Z,14.63
2018-11-21T00:46:05.026Z,13.70
2018-11-21T00:48:45.964Z,13.90
2018-11-21T00:51:26.780Z,13.37
2018-11-21T00:53:55.209Z,12.33
2018-11-21T00:56:36.080Z,12.70
2018-11-21T00:59:16.701Z,12.47
2018-11-21T01:01:57.626Z,14.00
2018-11-21T01:04:38.530Z,13.30
2018-11-21T01:07:19.403Z,13.87
2018-11-21T01:10:00.391Z,14.00
2018-11-21T01:12:41.325Z,14.90
2018-11-21T01:15:22.194Z,13.47
2018-11-21T01:18:02.913Z,15.73
2018-11-21T01:20:43.741Z,16.23
2018-11-21T01:23:24.511Z,17.93
2018-11-21T01:26:05.265Z,18.27
2018-11-21T01:28:46.274Z,18.73
2018-11-21T01:31:27.433Z,19.30
2018-11-21T01:34:08.187Z,18.73
2018-11-21T01:36:48.733Z,19.53
2018-11-21T01:39:29.401Z,19.73
2018-11-21T01:42:10.131Z,17.23
2018-11-21T01:44:50.883Z,17.77
2018-11-21T01:47:31.690Z,18.50
2018-11-21T01:50:12.475Z,17.43
2018-11-21T01:52:53.337Z,17.77
2018-11-21T01:55:34.396Z,18.40
2018-11-21T01:58:15.261Z,18.03
2018-11-21T02:00:59.120Z,16.33
2018-11-21T02:03:40.196Z,16.70
2018-11-21T02:06:21.038Z,16.57
2018-11-21T02:09:02.114Z,16.73
2018-11-21T02:11:43.085Z,16.77
2018-11-21T02:14:24.112Z,16.30
2018-11-21T02:17:04.924Z,16.07
2018-11-21T02:19:45.223Z,15.90
2018-11-21T02:22:25.718Z,16.80
2018-11-21T02:24:53.979Z,16.57
2018-11-21T02:27:41.617Z,16.67
2018-11-21T02:30:22.246Z,15.83
2018-11-21T02:33:02.946Z,16.63
2018-11-21T02:35:43.689Z,15.93
2018-11-21T02:38:24.244Z,15.67
2018-11-21T02:41:05.108Z,14.77
2018-11-21T02:43:45.779Z,16.83
2018-11-21T02:46:26.843Z,16.50
2018-11-21T02:49:07.828Z,17.83
2018-11-21T02:51:48.514Z,17.27
2018-11-21T02:54:29.222Z,17.27
2018-11-21T02:57:16.963Z,17.07
2018-11-21T03:00:02.139Z,17.13
2018-11-21T03:02:42.516Z,16.30
2018-11-21T03:05:23.127Z,15.80
2018-11-21T03:08:03.872Z,16.50
2018-11-21T03:10:44.742Z,15.17
2018-11-21T03:13:28.418Z,14.70
2018-11-21T03:16:06.388Z,15.27
2018-11-21T03:18:47.011Z,14.90
2018-11-21T03:21:27.694Z,17.23
2018-11-21T03:24:08.705Z,15.70
2018-11-21T03:26:50.551Z,15.70
2018-11-21T03:29:31.771Z,15.43
2018-11-21T03:32:12.702Z,14.63
2018-11-21T03:34:53.135Z,15.03
2018-11-21T03:37:33.650Z,14.93
2018-11-21T03:40:14.567Z,15.77
2018-11-21T03:42:55.631Z,16.53
2018-11-21T03:45:36.281Z,15.13
2018-11-21T03:48:17.518Z,14.30
2018-11-21T03:50:45.818Z,15.63
2018-11-21T03:53:26.416Z,14.80
2018-11-21T03:56:07.142Z,15.47
2018-11-21T03:58:48.189Z,15.97
2018-11-21T04:01:16.525Z,15.20
2018-11-21T04:03:57.622Z,15.80
2018-11-21T04:06:38.427Z,16.33
2018-11-21T04:09:18.997Z,16.67
2018-11-21T04:12:00.063Z,14.47
2018-11-21T04:14:28.373Z,14.10
2018-11-21T04:17:09.410Z,14.73
2018-11-21T04:19:49.946Z,18.67
2018-11-21T04:22:30.686Z,31.73
2018-11-21T04:24:58.999Z,21.40
2018-11-21T04:27:40.280Z,17.77
2018-11-21T04:30:20.912Z,17.57
2018-11-21T04:32:49.293Z,17.47
2018-11-21T04:35:30.330Z,18.00
2018-11-21T04:38:09.142Z,18.33
2018-11-21T04:40:49.777Z,16.53
2018-11-21T04:43:30.530Z,16.03
2018-11-21T04:46:11.435Z,17.17
2018-11-21T04:48:51.959Z,14.97
2018-11-21T04:51:32.805Z,15.53
2018-11-21T04:54:13.703Z,16.73
2018-11-21T04:56:54.549Z,15.80
2018-11-21T04:59:35.358Z,15.13
2018-11-21T05:02:15.894Z,16.33
2018-11-21T05:04:56.685Z,17.03
2018-11-21T05:07:37.535Z,16.33
2018-11-21T05:10:07.421Z,15.77
2018-11-21T05:12:47.725Z,16.97
2018-11-21T05:15:28.750Z,15.30
2018-11-21T05:18:09.297Z,17.67
2018-11-21T05:20:50.087Z,16.93
2018-11-21T05:23:30.779Z,15.77
2018-11-21T05:26:11.342Z,14.60
2018-11-21T05:28:52.452Z,15.33
2018-11-21T05:31:33.138Z,17.57
2018-11-21T05:34:13.762Z,16.10
2018-11-21T05:36:54.466Z,16.70
2018-11-21T05:39:35.106Z,17.57
2018-11-21T05:42:15.730Z,16.60
2018-11-21T05:44:56.256Z,16.47
2018-11-21T05:47:37.214Z,17.50
2018-11-21T05:50:17.846Z,17.47
2018-11-21T05:52:58.608Z,16.23
2018-11-21T05:55:39.428Z,18.43
2018-11-21T05:58:20.270Z,19.17
2018-11-21T06:01:01.058Z,17.87
2018-11-21T06:03:41.785Z,17.13
2018-11-21T06:06:22.431Z,18.07
2018-11-21T06:09:04.015Z,17.87
2018-11-21T06:11:45.210Z,18.67
2018-11-21T06:14:26.174Z,19.67
2018-11-21T06:17:07.170Z,19.47
2018-11-21T06:19:48.172Z,18.57
2018-11-21T06:22:28.906Z,18.63
2018-11-21T06:25:10.273Z,19.87
2018-11-21T06:27:51.126Z,17.93
2018-11-21T06:30:31.936Z,19.23
2018-11-21T06:33:12.602Z,19.13
2018-11-21T06:35:53.771Z,19.23
2018-11-21T06:38:34.222Z,16.13
2018-11-21T06:41:14.870Z,19.30
2018-11-21T06:43:55.390Z,21.73
2018-11-21T06:46:36.002Z,19.97
2018-11-21T06:49:16.516Z,19.10
2018-11-21T06:51:57.354Z,18.60
2018-11-21T06:54:37.882Z,16.23
2018-11-21T06:57:18.556Z,17.87
2018-11-21T06:59:58.991Z,17.43
2018-11-21T07:02:40.452Z,16.87
2018-11-21T07:05:21.487Z,17.30
2018-11-21T07:08:02.180Z,20.00
2018-11-21T07:10:42.738Z,22.60
2018-11-21T07:13:23.290Z,21.50
2018-11-21T07:16:03.806Z,24.40
2018-11-21T07:18:44.628Z,22.17
2018-11-21T07:21:25.243Z,20.90
2018-11-21T07:24:10.360Z,22.47
2018-11-21T07:26:50.906Z,21.23
2018-11-21T07:29:34.672Z,20.97
2018-11-21T07:32:12.065Z,23.27
2018-11-21T07:34:53.102Z,22.67
2018-11-21T07:37:33.758Z,21.73
2018-11-21T07:40:02.056Z,19.27
2018-11-21T07:42:43.166Z,19.77
2018-11-21T07:45:23.965Z,18.53
2018-11-21T07:48:05.015Z,18.87
2018-11-21T07:50:45.459Z,17.97
2018-11-21T07:53:30.098Z,19.30
2018-11-21T07:56:31.348Z,18.00
2018-11-21T07:59:12.066Z,18.80
2018-11-21T08:02:14.510Z,19.70
2018-11-21T08:05:02.521Z,19.17
2018-11-21T08:07:49.370Z,20.20
2018-11-21T08:10:41.983Z,20.33
2018-11-21T08:13:42.621Z,20.87
2018-11-21T08:16:42.425Z,20.97
2018-11-21T08:19:42.360Z,21.70
2018-11-21T08:22:42.935Z,21.77
2018-11-21T08:25:43.673Z,22.37
2018-11-21T08:28:31.132Z,23.43
2018-11-21T08:31:11.601Z,22.20
2018-11-21T08:33:52.632Z,20.63
2018-11-21T08:36:33.546Z,21.70
2018-11-21T08:39:14.332Z,21.23
2018-11-21T08:41:55.290Z,20.10
2018-11-21T08:44:36.136Z,20.43
2018-11-21T08:47:17.063Z,21.33
2018-11-21T08:49:57.704Z,20.77
2018-11-21T08:52:38.484Z,21.27
2018-11-21T08:55:19.532Z,20.17
2018-11-21T08:57:59.897Z,19.07
2018-11-21T09:00:41.063Z,18.47
2018-11-21T09:03:21.884Z,17.90
2018-11-21T09:09:25.037Z,18.10
2018-11-21T09:12:08.709Z,17.33
2018-11-21T09:14:58.979Z,17.00
2018-11-21T09:17:40.592Z,17.00
2018-11-21T09:20:21.974Z,17.70
2018-11-21T09:23:02.518Z,16.50
2018-11-21T09:25:43.212Z,16.67
2018-11-21T09:28:24.031Z,16.80
2018-11-21T09:31:04.998Z,16.03
2018-11-21T09:33:46.022Z,15.30
2018-11-21T09:36:26.891Z,16.33
2018-11-21T09:39:08.394Z,15.77
2018-11-21T09:41:49.580Z,16.30
2018-11-21T09:44:30.509Z,16.63
2018-11-21T09:47:11.181Z,15.87
2018-11-21T09:53:00.390Z,17.37
2018-11-21T09:55:41.062Z,16.23
2018-11-21T09:58:09.466Z,16.57
2018-11-21T10:01:16.405Z,16.03
2018-11-21T10:04:00.953Z,17.33
2018-11-21T10:06:38.898Z,18.87
2018-11-21T10:09:22.296Z,20.03
2018-11-21T10:12:03.434Z,18.50
2018-11-21T10:14:44.063Z,18.97
2018-11-21T10:17:24.935Z,19.50
2018-11-21T10:20:05.968Z,18.63
2018-11-21T10:22:46.597Z,19.53
2018-11-21T10:25:27.700Z,19.23
2018-11-21T10:28:08.414Z,19.80
2018-11-21T10:30:49.311Z,19.67
2018-11-21T10:33:29.997Z,18.10
2018-11-21T10:36:10.492Z,18.13
2018-11-21T10:38:51.063Z,18.53
2018-11-21T10:41:19.376Z,18.07
2018-11-21T10:44:00.406Z,18.43
2018-11-21T10:46:41.142Z,18.67
2018-11-21T10:49:09.398Z,18.00
2018-11-21T10:51:37.822Z,17.90
2018-11-21T10:54:19.122Z,19.17
2018-11-21T10:56:59.817Z,17.33
2018-11-21T10:59:41.225Z,18.17
2018-11-21T11:02:41.036Z,16.87
2018-11-21T11:05:30.655Z,18.13
2018-11-21T11:08:30.493Z,16.70
2018-11-21T11:11:20.719Z,15.70
2018-11-21T11:14:20.841Z,17.50
2018-11-21T11:17:21.648Z,17.03
2018-11-21T11:20:21.423Z,16.07
2018-11-21T11:23:21.563Z,16.00
2018-11-21T11:26:21.528Z,16.20
2018-11-21T11:29:25.183Z,17.43
2018-11-21T11:32:31.327Z,17.13
2018-11-21T11:35:32.090Z,16.57
2018-11-21T11:38:32.785Z,16.83
2018-11-21T11:41:33.352Z,16.27
2018-11-21T11:44:40.083Z,15.80
2018-11-21T11:47:40.156Z,15.70
2018-11-21T11:50:40.149Z,15.67
2018-11-21T11:53:40.084Z,15.60
2018-11-21T11:56:40.849Z,15.73
2018-11-21T11:59:41.440Z,13.57
2018-11-21T12:02:41.592Z,13.93
2018-11-21T12:08:57.276Z,13.37
2018-11-21T12:11:49.908Z,13.90
2018-11-21T12:14:56.205Z,13.77
2018-11-21T12:17:56.735Z,14.00
2018-11-21T12:20:56.712Z,12.83
2018-11-21T12:24:02.383Z,13.73
2018-11-21T12:27:02.503Z,14.07
2018-11-21T12:30:02.712Z,14.17
2018-11-21T12:33:02.507Z,14.13
2018-11-21T12:36:02.467Z,14.57
2018-11-21T12:39:02.380Z,11.63
2018-11-21T12:42:02.576Z,13.67
2018-11-21T12:45:02.546Z,14.67
2018-11-21T12:48:24.714Z,14.97
2018-11-21T12:51:30.833Z,16.10
2018-11-21T12:54:30.676Z,13.53
2018-11-21T12:57:37.049Z,14.20
2018-11-21T13:00:37.234Z,14.87
2018-11-21T13:03:39.973Z,14.90
2018-11-21T13:06:42.935Z,14.47
2018-11-21T13:09:43.956Z,14.43
2018-11-21T13:12:37.295Z,14.00
2018-11-21T13:22:17.042Z,14.03
2018-11-21T13:25:19.016Z,14.47
2018-11-21T13:28:19.166Z,13.90
2018-11-21T13:31:07.101Z,14.40
2018-11-21T13:34:07.821Z,15.27
2018-11-21T13:37:07.859Z,13.97
2018-11-21T13:40:09.697Z,14.63
2018-11-21T13:43:09.508Z,13.90
2018-11-21T13:46:10.189Z,13.10
2018-11-21T13:49:10.616Z,13.60
2018-11-21T13:52:17.292Z,14.53
2018-11-21T13:54:59.239Z,14.87
2018-11-21T13:57:40.534Z,14.73
2018-11-21T14:00:21.383Z,13.67
2018-11-21T14:03:02.320Z,14.00
2018-11-21T14:05:44.110Z,13.23
2018-11-21T14:08:24.825Z,14.83
2018-11-21T14:11:05.689Z,13.90
2018-11-21T14:13:46.723Z,14.27
2018-11-21T14:16:27.110Z,13.40
2018-11-21T14:19:07.821Z,14.60
2018-11-21T14:21:48.537Z,15.10
2018-11-21T14:24:29.693Z,15.70
2018-11-21T14:27:10.898Z,15.00
2018-11-21T14:29:51.765Z,14.87
2018-11-21T14:32:32.897Z,14.80
2018-11-21T14:35:14.712Z,13.77
2018-11-21T14:37:55.248Z,14.17
2018-11-21T14:40:35.902Z,14.07
2018-11-21T14:43:16.568Z,14.43
2018-11-21T14:45:57.499Z,15.23
2018-11-21T14:48:38.621Z,13.70
2018-11-21T14:51:19.256Z,15.57
2018-11-21T14:54:00.028Z,17.43
2018-11-21T14:56:41.843Z,16.90
2018-11-21T15:02:45.035Z,15.77
2018-11-21T15:05:25.929Z,15.37
2018-11-21T15:08:07.007Z,16.37
2018-11-21T15:10:47.605Z,18.67
2018-11-21T15:13:28.373Z,19.30
2018-11-21T15:16:09.388Z,18.10
2018-11-21T15:18:51.170Z,17.97
2018-11-21T15:21:31.735Z,18.60
2018-11-21T15:24:12.763Z,18.93
2018-11-21T15:26:53.763Z,18.53
2018-11-21T15:29:34.561Z,17.80
2018-11-21T15:32:15.278Z,18.03
2018-11-21T15:34:55.814Z,17.83
2018-11-21T15:37:36.959Z,19.90
2018-11-21T15:40:22.289Z,21.57
2018-11-21T15:46:24.567Z,17.37
2018-11-21T15:49:05.195Z,16.13
2018-11-21T15:51:46.231Z,22.17
2018-11-21T15:54:26.680Z,19.93
2018-11-21T15:57:07.470Z,17.97
2018-11-21T15:59:48.520Z,18.10
2018-11-21T16:02:29.310Z,19.17
2018-11-21T16:05:11.110Z,21.53
2018-11-21T16:07:51.544Z,20.40
2018-11-21T16:10:39.996Z,18.57
2018-11-21T16:13:18.828Z,17.83
2018-11-21T16:15:59.860Z,17.87
2018-11-21T16:21:45.683Z,17.20
2018-11-21T16:24:26.774Z,17.60
2018-11-21T16:26:55.165Z,15.77
2018-11-21T16:29:44.465Z,19.17
2018-11-21T16:32:25.342Z,17.20
2018-11-21T16:35:08.385Z,16.97
2018-11-21T16:37:46.875Z,19.50
2018-11-21T16:40:30.146Z,18.13
2018-11-21T16:43:23.601Z,18.77
2018-11-21T16:46:04.505Z,18.17
2018-11-21T16:48:45.227Z,18.53
2018-11-21T16:51:26.011Z,20.20
2018-11-21T16:54:06.544Z,19.97
2018-11-21T16:56:47.438Z,20.10
2018-11-21T16:59:28.330Z,19.93
2018-11-21T17:02:09.186Z,19.50
2018-11-21T17:04:50.464Z,20.60
2018-11-21T17:07:31.621Z,19.47
2018-11-21T17:10:13.846Z,20.00
2018-11-21T17:12:55.026Z,19.87
2018-11-21T17:15:35.894Z,20.60
2018-11-21T17:18:17.185Z,19.87
2018-11-21T17:21:07.711Z,19.87
2018-11-21T17:23:48.464Z,20.40
2018-11-21T17:26:29.216Z,17.60
2018-11-21T17:29:09.839Z,18.93
2018-11-21T17:31:50.812Z,20.43
2018-11-21T17:34:31.577Z,20.10
2018-11-21T17:37:12.488Z,20.80
2018-11-21T17:39:52.878Z,21.87
2018-11-21T17:42:46.525Z,23.27
2018-11-21T17:45:27.529Z,21.80
2018-11-21T17:48:08.453Z,22.20
2018-11-21T17:50:49.755Z,24.57
2018-11-21T17:53:30.671Z,22.57
2018-11-21T17:59:49.289Z,22.27
2018-11-21T18:02:32.050Z,21.43
2018-11-21T18:05:17.131Z,21.83
2018-11-21T18:08:05.968Z,21.27
2018-11-21T18:10:47.014Z,22.47
2018-11-21T18:13:27.721Z,23.10
2018-11-21T18:16:08.279Z,22.57
2018-11-21T18:18:49.202Z,22.20
2018-11-21T18:21:29.723Z,22.70
2018-11-21T18:24:10.572Z,22.57
2018-11-21T18:26:59.382Z,23.47
2018-11-21T18:29:40.284Z,22.53
2018-11-21T18:32:20.847Z,23.50
2018-11-21T18:35:01.541Z,24.27
2018-11-21T18:37:29.799Z,24.20
2018-11-21T18:40:12.843Z,23.17
2018-11-21T18:42:53.623Z,23.13
2018-11-21T18:45:38.802Z,21.80
2018-11-21T18:48:23.232Z,21.53
2018-11-21T18:51:03.904Z,21.50
2018-11-21T18:53:44.338Z,22.93
2018-11-21T18:56:29.378Z,24.10
2018-11-21T18:59:30.376Z,24.53
2018-11-21T19:02:11.416Z,23.27
2018-11-21T19:04:51.922Z,23.97
2018-11-21T19:07:32.554Z,24.93
2018-11-21T19:10:14.347Z,24.30
2018-11-21T19:12:55.030Z,23.70
2018-11-21T19:15:35.717Z,22.30
2018-11-21T19:18:16.204Z,22.80
2018-11-21T19:20:57.003Z,23.07
2018-11-21T19:23:37.638Z,22.00
2018-11-21T19:26:18.494Z,22.57
2018-11-21T19:28:59.257Z,22.20
2018-11-21T19:31:40.005Z,21.60
2018-11-21T19:34:20.297Z,21.83
2018-11-21T19:37:09.170Z,21.80
2018-11-21T19:39:49.830Z,21.60
2018-11-21T19:42:31.133Z,22.70
2018-11-21T19:45:12.954Z,22.00
2018-11-21T19:47:57.512Z,21.87
2018-11-21T19:50:38.340Z,22.20
2018-11-21T19:53:19.268Z,20.70
2018-11-21T19:55:59.930Z,19.97
2018-11-21T19:58:40.615Z,22.00
2018-11-21T20:01:21.744Z,23.67
2018-11-21T20:04:02.414Z,21.10
2018-11-21T20:06:30.771Z,22.17
2018-11-21T20:09:19.106Z,20.53
2018-11-21T20:11:59.936Z,20.20
2018-11-21T20:14:41.246Z,19.43
2018-11-21T20:17:21.747Z,20.00
2018-11-21T20:20:02.595Z,20.43
2018-11-21T20:22:43.505Z,19.93
2018-11-21T20:25:24.885Z,19.30
2018-11-21T20:28:08.437Z,20.33
2018-11-21T20:30:38.018Z,21.73
2018-11-21T20:33:19.409Z,20.93
2018-11-21T20:36:00.156Z,20.47
2018-11-21T20:38:41.903Z,23.23
2018-11-21T20:41:22.504Z,24.07
2018-11-21T20:44:03.324Z,23.07
2018-11-21T20:46:45.019Z,22.57
2018-11-21T20:52:30.733Z,20.63
2018-11-21T20:55:12.566Z,22.00
2018-11-21T20:58:03.023Z,22.93
